»·PEaware :: N129DQ KSBP-KSBA

N129DQ :: KSBP-KSBA

FLIGHT INFORMATION

Flight Status: Arrived
Operator: Privately registered:
United States
More flights under this callsign
Pilot: Doug M. (13043)
Aircraft: CESSNA 172 SKYHAWK
(C172)
More flights by this aircraft type
Origin: KSBP San Luis Co Regl
United States
Destination: KSBA Santa Barbara Mun
United States
More flights between these airports :: More routes between these airports
Route:
File this flight plan on PilotEdge
Remarks:
Altitude:
(Current/Filed)
5,500ft
Speed:
(Current/Filed)
120kts
Departed: 10-Oct-18 11:55 AM
Arrived: 10-Oct-18 12:35 PM
Distance/Time
Traveled:
62nm/0:39
Distance/Time
To Go:
Arrived

Flight Plot

Page will automatically refresh every two minutes.


Map Options




Map Legend


Flown Route
Filed Route
Departure Airport
Arrival Airport
Navaid (VOR, NDB)
Fix

Horizontal Profiles

Position Reports

Time Latitude Longitude Heading Altitude Ground
Speed
10-Oct-18 11:38 35.234530 -120.632880 304 179ft 0kts
10-Oct-18 11:39 35.234530 -120.632880 304 179ft 0kts
10-Oct-18 11:40 35.234530 -120.632880 304 179ft 0kts
10-Oct-18 11:41 35.234530 -120.632880 304 179ft 0kts
10-Oct-18 11:42 35.234530 -120.632880 304 179ft 0kts
10-Oct-18 11:43 35.234530 -120.632880 304 179ft 0kts
10-Oct-18 11:44 35.234530 -120.632880 304 179ft 0kts
10-Oct-18 11:45 35.234530 -120.632880 304 179ft 0kts
10-Oct-18 11:46 35.234530 -120.632880 304 179ft 0kts
10-Oct-18 11:47 35.234530 -120.632880 304 179ft 0kts
10-Oct-18 11:48 35.234530 -120.632880 304 179ft 0kts
10-Oct-18 11:49 35.234530 -120.632880 304 179ft 0kts
10-Oct-18 11:50 35.234530 -120.632880 304 179ft 0kts
10-Oct-18 11:51 35.234530 -120.632880 304 179ft 0kts
10-Oct-18 11:54 35.234530 -120.632880 304 179ft 0kts
10-Oct-18 11:55 35.234053 -120.633332 119 179ft 18kts
10-Oct-18 11:56 35.233156 -120.632463 219 179ft 0kts
10-Oct-18 11:57 35.234039 -120.635271 303 179ft 65kts
10-Oct-18 11:58 35.248531 -120.661573 268 816ft 102kts
10-Oct-18 11:59 35.231101 -120.677399 171 1177ft 118kts
10-Oct-18 12:00 35.210581 -120.643479 123 1429ft 119kts
10-Oct-18 12:01 35.192978 -120.604884 125 2325ft 104kts
10-Oct-18 12:02 35.178076 -120.583959 142 3108ft 93kts
10-Oct-18 12:03 35.159847 -120.564575 146 4097ft 82kts
10-Oct-18 12:04 35.142167 -120.546785 146 4906ft 91kts
10-Oct-18 12:05 35.121439 -120.526195 146 5514ft 109kts
10-Oct-18 12:06 35.098519 -120.503510 145 5559ft 129kts
10-Oct-18 12:07 35.076901 -120.481940 145 5558ft 126kts
10-Oct-18 12:08 35.049308 -120.454546 145 5248ft 132kts
10-Oct-18 12:09 35.017234 -120.422690 145 4688ft 131kts
10-Oct-18 12:10 34.994023 -120.399575 145 4284ft 131kts
10-Oct-18 12:11 34.966120 -120.371895 145 3796ft 131kts
10-Oct-18 12:12 34.934222 -120.340180 145 3561ft 128kts
10-Oct-18 12:13 34.911676 -120.317821 145 3563ft 128kts
10-Oct-18 12:14 34.885360 -120.291752 145 3562ft 128kts
10-Oct-18 12:15 34.858342 -120.264926 145 3562ft 128kts
10-Oct-18 12:16 34.831148 -120.237622 144 3562ft 127kts
10-Oct-18 12:17 34.804021 -120.210814 146 3553ft 124kts
10-Oct-18 12:18 34.778599 -120.188186 159 3849ft 110kts
10-Oct-18 12:19 34.745521 -120.176931 179 3351ft 129kts
10-Oct-18 12:20 34.709709 -120.178840 190 2854ft 130kts
10-Oct-18 12:21 34.678269 -120.184822 190 3303ft 109kts
10-Oct-18 12:22 34.647390 -120.188017 175 3551ft 121kts
10-Oct-18 12:23 34.614353 -120.182946 175 3550ft 119kts
10-Oct-18 12:24 34.581934 -120.186735 190 3550ft 117kts
10-Oct-18 12:25 34.549394 -120.187009 176 3550ft 119kts
10-Oct-18 12:26 34.524534 -120.161419 131 3550ft 125kts
10-Oct-18 12:27 34.511991 -120.120781 110 3344ft 133kts
10-Oct-18 12:28 34.498011 -120.071663 113 2762ft 133kts
10-Oct-18 12:29 34.487434 -120.037155 114 2352ft 133kts
10-Oct-18 12:30 34.474726 -119.996059 114 2044ft 122kts
10-Oct-18 12:31 34.470515 -119.955174 88 1819ft 132kts
10-Oct-18 12:32 34.468140 -119.915944 92 1468ft 119kts
10-Oct-18 12:33 34.467989 -119.881877 91 1482ft 96kts
10-Oct-18 12:34 34.461943 -119.854817 144 1102ft 87kts
10-Oct-18 12:35 34.444163 -119.845596 170 472ft 70kts
10-Oct-18 12:36 34.426399 -119.840278 167 16ft 51kts
10-Oct-18 12:37 34.423576 -119.840201 306 16ft 1kts
10-Oct-18 12:38 34.429547 -119.842715 249 16ft 18kts

Navigation Log

Ident Type
Flight plan parsing failed, navigation log unavailable